TimeMDT,TemperatureF,Dew PointF,Humidity,Sea Level PressureIn,VisibilityMPH,Wind Direction,Wind SpeedMPH,Gust SpeedMPH,PrecipitationIn,Events,Conditions,WindDirDegrees,DateUTC
12:53 AM,46.9,24.1,41,29.84,10.0,Calm,Calm,-,N/A,,Clear,0,2012-10-09 06:53:00
1:53 AM,42.1,25.0,51,29.86,10.0,North,3.5,-,N/A,,Clear,10,2012-10-09 07:53:00
2:53 AM,41.0,23.0,49,29.85,10.0,NE,4.6,-,N/A,,Clear,40,2012-10-09 08:53:00
3:53 AM,37.9,23.0,55,29.86,10.0,NE,5.8,-,N/A,,Clear,50,2012-10-09 09:53:00
5:53 AM,36.0,21.0,55,29.88,10.0,ENE,9.2,-,N/A,,Clear,60,2012-10-09 11:53:00
6:53 AM,34.0,21.0,59,29.94,10.0,Variable,5.8,-,N/A,,Clear,0,2012-10-09 12:53:00
7:53 AM,37.9,21.9,53,29.94,10.0,ENE,4.6,-,N/A,,Clear,60,2012-10-09 13:53:00
8:53 AM,46.0,23.0,40,29.91,10.0,East,4.6,-,N/A,,Clear,100,2012-10-09 14:53:00
9:53 AM,54.0,25.0,33,29.89,10.0,Calm,Calm,-,N/A,,Clear,0,2012-10-09 15:53:00
10:53 AM,60.1,19.9,21,29.88,10.0,South,8.1,-,N/A,,Clear,190,2012-10-09 16:53:00
11:53 AM,64.9,21.9,19,29.89,10.0,South,4.6,-,N/A,,Clear,180,2012-10-09 17:53:00
12:53 PM,66.9,23.0,19,29.86,10.0,South,11.5,18.4,N/A,,Clear,180,2012-10-09 18:53:00
1:53 PM,70.0,21.0,16,29.84,10.0,South,12.7,-,N/A,,Clear,190,2012-10-09 19:53:00
2:53 PM,72.0,21.0,15,29.83,10.0,SSE,13.8,18.4,N/A,,Clear,150,2012-10-09 20:53:00
3:53 PM,73.0,21.9,15,29.83,10.0,SSE,9.2,-,N/A,,Clear,160,2012-10-09 21:53:00
4:53 PM,73.9,21.9,14,29.84,10.0,South,6.9,-,N/A,,Clear,180,2012-10-09 22:53:00
5:53 PM,71.1,21.9,16,29.86,10.0,East,3.5,-,N/A,,Clear,90,2012-10-09 23:53:00
6:53 PM,57.0,32.0,39,29.99,10.0,ENE,20.7,-,N/A,,Clear,70,2012-10-10 00:53:00
7:53 PM,53.1,33.1,47,30.06,10.0,East,15.0,24.2,N/A,,Clear,80,2012-10-10 01:53:00
8:53 PM,48.9,34.0,56,30.09,10.0,ENE,12.7,-,N/A,,Clear,70,2012-10-10 02:53:00
9:53 PM,45.0,34.0,65,30.10,10.0,East,12.7,-,N/A,,Clear,90,2012-10-10 03:53:00
10:53 PM,41.0,33.1,73,30.10,10.0,East,6.9,-,N/A,,Clear,90,2012-10-10 04:53:00
11:53 PM,39.9,32.0,73,30.09,10.0,NE,4.6,-,N/A,,Clear,40,2012-10-10 05:53:00